Time;durP1;ratioP1;P1;durP2;ratioP2;P2;SDS_P1;SDS_P2;PMS_P1;PMS_P2;Temp;Humidity;BMP_temperature;BMP_pressure;BME280_temperature;BME280_humidity;BME280_pressure;Samples;Min_cycle;Max_cycle;Signal;HPM_P1;HPM_P2
2021/12/25 00:00:20;;;;;;;2.93;2.70;;;16.80;93.70;;;16.61;45.06;99994.00;4949642;28;97375;-51
2021/12/25 00:02:46;;;;;;;3.23;2.87;;;16.70;93.20;;;16.61;45.41;99994.00;4953878;28;97210;-49
2021/12/25 00:05:14;;;;;;;3.43;2.67;;;16.70;93.80;;;16.52;45.64;100000.84;4942002;28;99391;-45
2021/12/25 00:07:40;;;;;;;3.07;2.80;;;16.50;93.40;;;16.36;45.98;100001.06;4937845;28;98822;-50
2021/12/25 00:10:08;;;;;;;3.50;2.87;;;16.20;94.60;;;16.23;46.30;100005.53;4951728;28;97756;-49
2021/12/25 00:12:34;;;;;;;2.97;2.77;;;15.90;94.60;;;16.05;46.48;100009.44;4963719;28;97529;-47
2021/12/25 00:15:01;;;;;;;3.20;2.90;;;15.60;95.30;;;15.97;46.62;100003.81;4966694;28;97125;-45
2021/12/25 00:17:27;;;;;;;2.93;2.67;;;15.50;95.50;;;15.94;46.81;100014.66;4957545;28;98676;-45
2021/12/25 00:19:54;;;;;;;3.30;2.33;;;15.60;95.70;;;15.99;46.86;100007.22;4955106;28;97312;-47
2021/12/25 00:22:21;;;;;;;2.90;2.70;;;15.80;95.20;;;16.06;46.54;99997.88;4959821;28;97234;-50
2021/12/25 00:24:48;;;;;;;2.40;2.20;;;15.90;94.80;;;16.07;46.62;100002.22;4962541;28;100058;-47
2021/12/25 00:30:07;;;;;;;2.10;1.90;;;16.00;94.80;;;16.10;46.40;99995.84;4949589;28;97139;-46
2021/12/25 00:35:09;;;;;;;2.40;2.20;;;16.20;94.50;;;16.29;46.09;99999.78;4952325;28;98323;-51
2021/12/25 00:37:35;;;;;;;2.40;2.20;;;16.40;94.20;;;16.39;46.07;100002.66;4951975;28;103157;-45
2021/12/25 00:40:01;;;;;;;1.90;1.70;;;16.50;94.00;;;16.45;45.67;99994.22;4951604;28;97473;-46
2021/12/25 00:42:27;;;;;;;2.07;1.87;;;16.60;93.80;;;16.53;45.42;99985.72;4964085;28;97277;-47
2021/12/25 00:44:53;;;;;;;2.00;1.80;;;16.70;93.70;;;16.56;45.27;99981.00;4953598;28;99721;-48
2021/12/25 00:47:19;;;;;;;2.13;1.93;;;16.70;93.50;;;16.61;45.28;99978.00;4945657;28;100779;-47
2021/12/25 00:49:45;;;;;;;1.70;1.60;;;16.80;93.40;;;16.66;45.00;99989.22;4953394;28;97443;-50
2021/12/25 00:52:11;;;;;;;1.90;1.63;;;16.80;93.10;;;16.69;45.30;99986.34;4946739;28;97401;-49
2021/12/25 00:54:37;;;;;;;1.70;1.60;;;16.90;93.30;;;16.70;45.05;99977.41;4946568;28;99204;-50
2021/12/25 00:57:03;;;;;;;2.97;1.73;;;16.90;93.20;;;16.73;45.12;99978.97;4952011;28;99030;-47
2021/12/25 00:59:29;;;;;;;1.80;1.57;;;16.90;93.20;;;16.75;44.74;99987.72;4965351;28;98365;-48
2021/12/25 01:01:55;;;;;;;1.40;1.30;;;16.90;93.10;;;16.72;45.00;99980.81;4951075;28;97732;-46
2021/12/25 01:04:20;;;;;;;2.03;1.30;;;16.90;93.00;;;16.74;44.76;99984.19;4947426;28;97346;-45
2021/12/25 01:06:46;;;;;;;2.40;1.60;;;16.90;93.00;;;16.72;44.65;99991.44;4936645;28;99673;-49
2021/12/25 01:09:12;;;;;;;1.67;1.57;;;16.80;93.00;;;16.70;45.11;99990.72;4952158;28;97601;-44
2021/12/25 01:11:38;;;;;;;1.40;1.30;;;16.80;92.90;;;16.62;45.22;99993.03;4947329;28;98031;-48
2021/12/25 01:14:19;;;;;;;1.30;1.20;;;16.60;93.20;;;16.56;45.18;99985.50;4954768;28;97315;-49
2021/12/25 01:48:16;;;;;;;1.23;1.13;;;16.50;93.80;;;16.43;45.44;99980.19;4971753;28;97331;-47
2021/12/25 01:50:42;;;;;;;1.20;1.10;;;16.50;92.40;;;16.30;45.92;99982.84;4975214;28;97521;-45
2021/12/25 01:53:08;;;;;;;2.10;2.00;;;16.20;93.60;;;16.17;45.64;99975.81;4977202;28;96941;-45
2021/12/25 01:55:34;;;;;;;1.00;0.90;;;15.90;93.40;;;16.17;46.11;99978.47;4970294;28;103642;-47
2021/12/25 01:58:04;;;;;;;1.40;1.30;;;15.90;94.70;;;16.14;46.05;99979.56;4976357;28;97288;-47
2021/12/25 02:00:54;;;;;;;1.20;1.10;;;15.90;94.40;;;16.13;45.97;99985.84;4972928;28;98299;-47
2021/12/25 02:03:24;;;;;;;2.40;2.20;;;16.00;94.30;;;15.97;46.07;99982.53;4972293;28;97505;-45
2021/12/25 02:05:50;;;;;;;1.13;1.03;;;15.70;94.10;;;15.92;46.56;99987.31;4976555;28;97448;-45
2021/12/25 02:08:17;;;;;;;1.20;1.10;;;15.60;95.00;;;15.86;46.75;99985.06;4971534;27;97492;-48
2021/12/25 02:10:43;;;;;;;0.90;0.90;;;15.60;94.50;;;15.89;46.48;99984.84;4977370;28;96721;-46
2021/12/25 02:13:11;;;;;;;0.93;0.73;;;15.60;94.90;;;15.90;46.57;99989.22;4974593;27;97147;-55
2021/12/25 02:15:41;;;;;;;1.00;1.00;;;15.70;94.60;;;15.84;46.59;99986.97;4977733;28;101892;-45
2021/12/25 02:18:13;;;;;;;2.80;2.60;;;15.60;94.60;;;15.77;46.79;99983.91;4972612;28;99053;-48
2021/12/25 02:20:51;;;;;;;1.17;1.07;;;15.50;94.20;;;15.66;47.21;99984.59;4990778;28;97677;-46
2021/12/25 02:23:22;;;;;;;0.77;0.77;;;15.30;95.50;;;15.62;47.33;99985.78;4981808;28;97194;-45
2021/12/25 02:25:51;;;;;;;0.70;0.70;;;15.20;95.40;;;15.63;47.56;99982.16;4972958;28;100553;-46
2021/12/25 02:28:18;;;;;;;1.10;1.00;;;15.20;95.90;;;15.80;47.06;99980.16;4987575;28;97508;-46
2021/12/25 02:30:47;;;;;;;1.20;1.10;;;15.60;95.30;;;15.88;46.82;99975.16;4979775;28;96997;-44
2021/12/25 02:33:15;;;;;;;1.07;1.00;;;15.70;94.10;;;15.90;46.82;99966.13;4972321;28;96920;-45
2021/12/25 02:35:40;;;;;;;1.00;0.90;;;15.80;94.90;;;16.00;46.56;99971.66;4990514;27;99202;-48
2021/12/25 02:38:06;;;;;;;0.80;0.80;;;15.90;94.60;;;16.09;46.18;99971.03;4973310;28;97750;-48
2021/12/25 02:40:32;;;;;;;0.90;0.90;;;16.10;94.40;;;16.20;46.19;99968.50;4970828;28;97222;-47
2021/12/25 02:42:59;;;;;;;0.80;0.80;;;16.20;94.00;;;16.28;45.74;99971.47;4992787;28;97141;-47
2021/12/25 02:45:25;;;;;;;1.10;0.90;;;16.40;93.60;;;16.36;45.79;99969.13;4971367;28;97446;-48
2021/12/25 02:47:55;;;;;;;1.10;1.00;;;16.50;93.60;;;16.42;45.28;99961.66;4973080;28;97747;-47
2021/12/25 02:50:31;;;;;;;0.70;0.70;;;16.50;93.50;;;16.43;45.51;99955.38;4971366;28;96899;-49
2021/12/25 02:52:59;;;;;;;1.13;1.03;;;16.50;93.30;;;16.34;45.34;99968.34;4972666;28;97288;-46
2021/12/25 02:55:27;;;;;;;0.70;0.70;;;16.30;93.10;;;16.37;45.41;99964.66;4969086;28;99793;-45
2021/12/25 02:57:54;;;;;;;1.67;1.03;;;16.30;94.10;;;16.28;45.46;99966.13;4987866;28;100174;-45
2021/12/25 03:00:37;;;;;;;0.73;0.70;;;16.20;93.40;;;16.26;45.80;99968.06;4970136;28;98715;-48
2021/12/25 03:03:04;;;;;;;0.73;0.73;;;16.10;93.80;;;16.30;45.56;99968.69;4973494;28;98626;-44
2021/12/25 03:05:30;;;;;;;0.83;0.83;;;16.20;93.90;;;16.36;45.42;99969.13;4971928;28;97629;-48
2021/12/25 03:07:56;;;;;;;0.73;0.73;;;16.40;93.70;;;16.43;45.26;99966.00;4974886;28;98368;-48
2021/12/25 03:10:22;;;;;;;0.70;0.70;;;16.50;93.50;;;16.49;45.04;99968.22;4974821;28;97268;-46
2021/12/25 03:13:05;;;;;;;0.93;0.90;;;16.60;93.40;;;16.45;45.39;99961.44;4976752;28;97334;-45
2021/12/25 03:15:45;;;;;;;0.87;0.80;;;16.50;92.90;;;16.30;45.59;99964.22;4972781;28;99624;-47
2021/12/25 03:18:23;;;;;;;0.80;0.80;;;16.20;93.50;;;16.34;45.44;99971.00;4968908;28;100369;-52
2021/12/25 03:20:55;;;;;;;0.53;0.53;;;16.30;93.40;;;16.38;45.35;99970.81;4975522;28;97613;-50
2021/12/25 03:23:24;;;;;;;1.83;0.90;;;16.40;93.40;;;16.44;45.25;99965.06;4966569;28;97540;-47
2021/12/25 03:25:52;;;;;;;1.07;0.97;;;16.50;93.30;;;16.47;45.36;99971.00;4970343;28;99040;-51
2021/12/25 03:28:22;;;;;;;1.80;1.70;;;16.60;93.20;;;16.49;44.99;99977.09;4972861;28;97152;-48
2021/12/25 03:30:49;;;;;;;0.90;0.90;;;16.60;92.70;;;16.51;45.04;99971.66;4993124;28;97390;-45
2021/12/25 03:33:18;;;;;;;3.60;3.30;;;16.60;93.00;;;16.47;45.26;99978.13;4970276;28;96919;-47
2021/12/25 03:35:45;;;;;;;0.63;0.63;;;16.50;92.70;;;16.40;45.13;99974.22;4989295;28;98640;-47
2021/12/25 03:38:15;;;;;;;2.67;2.47;;;16.40;93.40;;;16.31;45.50;99976.56;4967826;28;97281;-49
2021/12/25 03:40:42;;;;;;;3.47;3.17;;;16.20;93.00;;;16.26;43.93;99976.03;4974534;28;96858;-49
2021/12/25 03:43:08;;;;;;;1.17;1.10;;;16.20;92.20;;;16.22;45.66;99982.53;4994486;28;101462;-45
2021/12/25 03:45:35;;;;;;;0.73;0.73;;;16.10;93.40;;;16.20;45.82;99981.81;4974798;28;100318;-48
2021/12/25 03:48:10;;;;;;;0.77;0.77;;;16.10;93.90;;;16.21;45.66;99985.31;4980024;28;97525;-47
2021/12/25 03:58:53;;;;;;;0.70;0.70;;;16.40;93.30;;;16.33;45.04;99985.28;4972865;28;100351;-45
2021/12/25 04:01:32;;;;;;;1.43;0.80;;;16.40;93.00;;;16.39;45.15;99988.50;4976474;28;97385;-47
2021/12/25 04:04:24;;;;;;;1.17;1.13;;;16.40;93.20;;;16.42;45.20;99978.47;4976982;28;97122;-45
2021/12/25 04:07:02;;;;;;;1.00;0.87;;;16.50;92.80;;;16.49;44.82;99984.19;4973152;28;102673;-47
2021/12/25 04:09:28;;;;;;;0.60;0.60;;;16.60;92.90;;;16.55;44.70;99981.13;4974691;28;98727;-46
2021/12/25 04:12:01;;;;;;;0.80;0.80;;;16.70;92.80;;;16.59;44.68;99986.13;4979934;28;97550;-49
2021/12/25 04:14:26;;;;;;;0.93;0.70;;;16.80;92.70;;;16.59;44.88;99990.59;4990420;28;97319;-44
2021/12/25 04:16:53;;;;;;;0.60;0.60;;;16.70;92.70;;;16.60;44.64;99986.97;4978222;28;97709;-46
2021/12/25 04:19:19;;;;;;;0.70;0.70;;;16.70;92.80;;;16.61;44.61;99986.00;4988499;28;97405;-45
2021/12/25 04:22:00;;;;;;;0.50;0.50;;;16.70;92.80;;;16.60;44.62;99981.63;4979472;28;97075;-50
2021/12/25 04:24:31;;;;;;;0.67;0.67;;;16.70;92.80;;;16.58;44.83;99978.25;4973891;28;96846;-47
2021/12/25 04:26:57;;;;;;;0.90;0.77;;;16.70;92.80;;;16.58;44.92;99983.56;4962066;28;99506;-48
2021/12/25 04:47:43;;;;;;;0.70;0.70;;;16.70;93.00;;;16.65;44.90;99996.34;4972400;28;97296;-45
2021/12/25 04:49:02;;;;;;;0.63;0.63;;;16.70;92.80;;;16.61;44.73;99999.31;4971133;28;97352;-45
2021/12/25 05:05:03;;;;;;;0.90;0.90;;;16.40;93.20;;;16.42;45.02;100009.56;4977027;28;102110;-45
2021/12/25 05:07:29;;;;;;;1.00;0.80;;;16.40;93.00;;;16.47;44.90;100012.75;4967610;28;97539;-46
2021/12/25 05:09:57;;;;;;;5.87;3.87;;;16.50;93.00;;;16.41;44.84;100013.19;4973344;28;99336;-47
2021/12/25 05:12:22;;;;;;;0.70;0.60;;;16.40;92.40;;;16.36;45.32;100011.72;4976669;28;98377;-48
2021/12/25 05:14:48;;;;;;;0.60;0.60;;;16.30;93.30;;;16.26;45.43;100010.63;4978720;28;96970;-48
2021/12/25 05:17:14;;;;;;;0.80;0.80;;;16.10;93.50;;;16.13;45.59;100009.78;4972693;28;98213;-46
2021/12/25 05:19:40;;;;;;;4.53;4.13;;;15.90;93.60;;;16.02;45.97;100009.66;4975064;28;102809;-49
2021/12/25 05:22:06;;;;;;;1.57;1.30;;;15.70;93.40;;;15.90;46.40;100006.00;4961606;28;97397;-45
2021/12/25 05:24:32;;;;;;;1.17;1.00;;;15.50;94.50;;;15.81;46.78;100011.13;4970612;28;97036;-45
2021/12/25 05:26:58;;;;;;;6.20;5.70;;;15.40;95.00;;;15.71;46.28;100009.06;4975456;28;97250;-48
2021/12/25 05:29:25;;;;;;;1.30;1.17;;;15.30;93.50;;;15.63;46.92;100014.06;4969395;28;99802;-49
2021/12/25 05:31:53;;;;;;;1.67;1.57;;;15.20;94.70;;;15.53;47.06;100020.91;4975757;28;97343;-45
2021/12/25 05:34:19;;;;;;;4.43;4.07;;;15.10;95.10;;;15.56;47.10;100011.88;4974419;28;97261;-46
2021/12/25 05:36:45;;;;;;;1.90;1.47;;;15.20;94.30;;;15.50;47.24;100021.09;4975227;28;97155;-46
2021/12/25 05:39:13;;;;;;;1.50;1.40;;;15.10;95.10;;;15.40;47.66;100014.69;4972819;28;97554;-52
2021/12/25 05:41:39;;;;;;;1.40;1.30;;;14.90;95.70;;;15.45;47.47;100023.19;4974804;28;102414;-45
2021/12/25 05:44:05;;;;;;;0.77;0.77;;;15.10;94.30;;;15.52;47.17;100018.34;4991161;28;97249;-45
2021/12/25 05:46:31;;;;;;;5.60;5.13;;;15.30;94.90;;;15.46;46.51;100008.97;4972340;28;97590;-46
2021/12/25 05:48:57;;;;;;;4.57;4.20;;;15.20;95.90;;;15.44;46.62;100010.88;4985183;28;106346;-46
2021/12/25 05:51:23;;;;;;;5.50;5.03;;;15.10;95.20;;;15.45;46.62;100020.53;4971486;28;98975;-46
2021/12/25 05:53:49;;;;;;;5.50;5.10;;;15.20;94.10;;;15.46;46.45;100022.25;4971858;28;96876;-46
2021/12/25 05:56:15;;;;;;;6.17;5.57;;;15.20;93.70;;;15.40;47.18;100022.66;4969964;28;97469;-45
2021/12/25 05:58:42;;;;;;;4.43;4.07;;;15.10;93.90;;;15.28;47.50;100016.34;4972512;28;97838;-47
2021/12/25 06:01:09;;;;;;;1.00;0.80;;;14.90;94.70;;;15.27;47.80;100024.41;4976237;28;97210;-47
2021/12/25 06:03:35;;;;;;;0.70;0.70;;;14.80;95.60;;;15.36;47.53;100018.50;4984220;28;97073;-46
2021/12/25 06:06:01;;;;;;;3.83;3.53;;;15.10;95.10;;;15.40;46.91;100025.31;4973682;28;101102;-48
2021/12/25 06:08:28;;;;;;;0.60;0.60;;;15.20;93.80;;;15.42;47.26;100028.72;4985625;28;96817;-50
2021/12/25 06:10:55;;;;;;;3.90;3.57;;;15.20;95.10;;;15.37;47.08;100036.16;4976297;28;97337;-47
2021/12/25 06:13:22;;;;;;;0.73;0.60;;;15.10;93.90;;;15.51;47.42;100033.44;4985996;28;98732;-45
2021/12/25 06:15:51;;;;;;;0.73;0.73;;;15.30;95.10;;;15.64;46.90;100042.34;4972006;28;96930;-49
2021/12/25 06:18:17;;;;;;;1.50;1.43;;;15.50;94.70;;;15.69;46.55;100048.19;4990344;28;97675;-46
2021/12/25 06:20:43;;;;;;;1.30;1.20;;;15.60;92.90;;;15.80;46.69;100044.00;4987780;28;97667;-49
2021/12/25 06:23:09;;;;;;;1.60;1.50;;;15.70;93.70;;;15.92;46.13;100044.03;4975701;28;96950;-47
2021/12/25 06:25:35;;;;;;;1.80;1.70;;;15.90;93.70;;;16.03;44.89;100045.94;4967539;28;97405;-46
2021/12/25 06:28:01;;;;;;;0.50;0.50;;;16.10;91.40;;;16.13;45.88;100051.50;4974825;28;98528;-49
2021/12/25 06:30:27;;;;;;;0.50;0.50;;;16.20;93.60;;;16.19;45.67;100051.91;4973879;28;97882;-46
2021/12/25 06:32:52;;;;;;;0.40;0.40;;;16.30;93.30;;;16.26;45.16;100053.22;4991547;28;99948;-47
2021/12/25 06:35:18;;;;;;;3.10;2.30;;;16.40;93.10;;;16.30;44.72;100060.03;4969606;28;97956;-49
2021/12/25 06:37:46;;;;;;;0.93;0.60;;;16.40;92.10;;;16.35;44.83;100068.56;4973945;28;100897;-45
2021/12/25 06:40:17;;;;;;;0.80;0.80;;;16.50;92.90;;;16.39;45.01;100066.53;4973436;28;96784;-45
2021/12/25 06:42:44;;;;;;;0.40;0.40;;;16.60;92.50;;;16.46;44.82;100067.78;4974514;27;96857;-46
2021/12/25 06:45:10;;;;;;;0.50;0.50;;;16.60;92.70;;;16.46;44.86;100080.25;4975814;28;97634;-52
2021/12/25 06:47:36;;;;;;;0.57;0.57;;;16.60;92.70;;;16.49;44.57;100069.38;4975790;28;119010;-45
2021/12/25 06:50:07;;;;;;;1.00;1.00;;;16.60;92.60;;;16.44;44.54;100077.69;4975850;28;98680;-45
2021/12/25 06:52:33;;;;;;;0.87;0.50;;;16.50;92.20;;;16.38;45.04;100082.59;4971034;28;97303;-47
2021/12/25 06:54:59;;;;;;;0.80;0.60;;;16.40;93.00;;;16.37;45.08;100081.75;4977223;28;97273;-46
2021/12/25 06:57:27;;;;;;;0.70;0.70;;;16.40;92.80;;;16.38;45.05;100087.94;4971661;28;99606;-47
2021/12/25 06:59:53;;;;;;;0.70;0.70;;;16.40;92.50;;;16.31;45.07;100087.47;4972980;28;96949;-49
2021/12/25 07:02:19;;;;;;;0.40;0.40;;;16.20;93.20;;;16.29;45.31;100087.59;4970995;28;96858;-46
2021/12/25 07:04:45;;;;;;;0.60;0.60;;;16.20;93.20;;;16.27;45.00;100086.84;4972483;28;97164;-44
2021/12/25 07:07:11;;;;;;;0.40;0.40;;;16.20;92.80;;;16.28;45.08;100093.03;4989560;28;116928;-54
2021/12/25 07:09:37;;;;;;;1.57;1.47;;;16.30;93.10;;;16.27;44.44;100092.16;4975631;28;102735;-50
2021/12/25 07:12:04;;;;;;;0.80;0.80;;;16.30;91.90;;;16.27;45.14;100096.63;4975019;28;97751;-46
2021/12/25 07:14:29;;;;;;;0.60;0.60;;;16.20;92.60;;;16.31;45.02;100104.31;4970815;28;102740;-48
2021/12/25 07:16:55;;;;;;;2.17;2.03;;;16.40;92.90;;;16.28;44.57;100095.69;4976449;28;100502;-48
2021/12/25 07:19:21;;;;;;;0.40;0.40;;;16.30;91.40;;;16.17;45.02;100101.72;4977131;28;98282;-45
2021/12/25 07:21:47;;;;;;;0.47;0.47;;;16.10;92.90;;;16.18;45.10;100108.75;4977324;28;97072;-49
2021/12/25 07:24:14;;;;;;;0.40;0.40;;;16.10;93.10;;;16.18;45.24;100111.41;4974779;28;97432;-48
2021/12/25 07:26:42;;;;;;;0.47;0.40;;;16.10;93.00;;;16.20;44.95;100112.19;4990466;28;97706;-45
2021/12/25 07:29:08;;;;;;;0.80;0.60;;;16.20;93.20;;;16.26;44.91;100117.06;4976468;28;97398;-45
2021/12/25 07:31:34;;;;;;;0.50;0.50;;;16.30;93.00;;;16.29;45.12;100111.53;4974362;28;97261;-50
2021/12/25 07:34:02;;;;;;;0.53;0.53;;;16.40;92.80;;;16.31;44.89;100125.59;4976763;28;97191;-45
2021/12/25 07:36:28;;;;;;;0.50;0.50;;;16.40;92.50;;;16.34;44.63;100120.06;4975222;28;97487;-46
2021/12/25 07:38:56;;;;;;;0.30;0.30;;;16.40;92.60;;;16.40;44.71;100123.28;4978325;28;99129;-45
2021/12/25 07:41:22;;;;;;;0.50;0.47;;;16.50;92.50;;;16.42;44.59;100132.00;4975940;28;97171;-45
2021/12/25 07:43:48;;;;;;;0.43;0.30;;;16.50;92.30;;;16.40;44.61;100133.91;4977711;28;96912;-46
2021/12/25 07:46:14;;;;;;;0.40;0.40;;;16.50;92.40;;;16.44;44.53;100135.41;4974760;28;99880;-48
2021/12/25 07:48:40;;;;;;;0.50;0.50;;;16.60;92.40;;;16.44;44.34;100140.72;4973379;28;98038;-47
2021/12/25 07:51:05;;;;;;;0.60;0.30;;;16.60;92.40;;;16.47;44.22;100141.38;4971689;28;97341;-47
2021/12/25 07:53:32;;;;;;;0.60;0.40;;;16.60;92.20;;;16.52;44.38;100143.75;4987729;28;97163;-45
2021/12/25 07:55:58;;;;;;;0.60;0.60;;;16.70;92.20;;;16.53;44.02;100140.97;4976893;28;98600;-50
2021/12/25 07:58:26;;;;;;;0.50;0.40;;;16.70;91.80;;;16.49;44.32;100138.59;4969101;28;97349;-47
2021/12/25 08:00:53;;;;;;;0.70;0.50;;;16.70;92.10;;;16.53;44.34;100154.28;4977058;28;96853;-45
2021/12/25 08:03:19;;;;;;;1.17;0.80;;;16.80;92.00;;;16.59;44.04;100158.31;4974506;28;97199;-48
2021/12/25 08:05:46;;;;;;;0.40;0.40;;;16.80;91.70;;;16.61;43.92;100159.06;4992887;28;97163;-45
2021/12/25 08:08:12;;;;;;;0.50;0.43;;;16.80;91.70;;;16.65;43.51;100157.91;4974478;28;97026;-47
2021/12/25 08:10:40;;;;;;;0.40;0.40;;;16.80;91.60;;;16.66;43.62;100152.47;4976479;28;97314;-46
2021/12/25 08:13:07;;;;;;;0.40;0.40;;;16.80;91.30;;;16.63;43.62;100152.66;4979437;28;97171;-47
2021/12/25 08:15:33;;;;;;;0.40;0.40;;;16.80;91.50;;;16.69;43.41;100166.56;4971791;28;97631;-51
2021/12/25 08:18:00;;;;;;;0.40;0.40;;;16.90;91.00;;;16.70;43.43;100161.13;4993449;28;99060;-45
2021/12/25 08:20:28;;;;;;;0.70;0.50;;;16.90;91.40;;;16.71;43.54;100162.84;4974961;28;97158;-47
2021/12/25 08:22:55;;;;;;;1.27;1.17;;;16.90;91.50;;;16.69;42.04;100175.41;4977261;28;97265;-48
2021/12/25 08:25:23;;;;;;;0.40;0.40;;;16.90;88.30;;;16.66;43.59;100172.94;4971238;28;97277;-46
2021/12/25 08:27:48;;;;;;;0.50;0.50;;;16.80;91.60;;;16.67;43.72;100180.00;4974128;28;97268;-46
2021/12/25 08:30:18;;;;;;;0.70;0.60;;;16.80;91.50;;;16.69;43.35;100182.56;4975621;28;97273;-47
2021/12/25 08:32:44;;;;;;;0.90;0.60;;;16.90;91.50;;;16.72;43.62;100187.66;4975667;28;97314;-46
2021/12/25 08:35:14;;;;;;;0.40;0.40;;;16.90;91.40;;;16.70;43.68;100179.78;4976151;28;99403;-51
2021/12/25 08:37:40;;;;;;;0.47;0.47;;;16.90;91.50;;;16.70;43.63;100189.59;4975841;28;103109;-47
2021/12/25 08:40:08;;;;;;;0.80;0.80;;;16.90;91.50;;;16.74;43.33;100189.25;4988211;28;97429;-48
2021/12/25 08:42:34;;;;;;;0.50;0.50;;;16.90;91.30;;;16.75;43.44;100192.78;4990281;28;97571;-47
2021/12/25 08:47:29;;;;;;;0.50;0.50;;;17.00;91.40;;;16.75;43.52;100195.44;4976633;28;97230;-47
2021/12/25 08:49:56;;;;;;;0.60;0.60;;;16.90;91.50;;;16.70;43.55;100203.75;4973992;28;96936;-46
2021/12/25 08:52:23;;;;;;;0.90;0.80;;;16.80;91.60;;;16.67;43.52;100201.31;4971419;28;96656;-46
2021/12/25 08:54:50;;;;;;;1.20;0.63;;;16.80;91.60;;;16.63;43.95;100205.06;4974377;28;98452;-49
2021/12/25 08:57:20;;;;;;;0.60;0.60;;;16.90;91.50;;;16.64;43.67;100212.13;4972833;28;98023;-46
2021/12/25 08:59:46;;;;;;;0.77;0.40;;;16.90;91.50;;;16.68;43.77;100218.97;4974625;28;99446;-45
2021/12/25 09:02:16;;;;;;;0.63;0.43;;;16.90;91.40;;;16.70;43.41;100225.06;4972093;28;97131;-46
2021/12/25 09:04:45;;;;;;;0.23;0.23;;;16.90;91.30;;;16.70;43.40;100226.84;4975179;28;98875;-47
2021/12/25 09:07:12;;;;;;;0.70;0.70;;;16.90;91.40;;;16.64;43.37;100220.97;4974390;28;98358;-50
2021/12/25 09:09:39;;;;;;;0.60;0.60;;;16.80;91.00;;;16.62;43.48;100225.53;4991480;28;97407;-47
2021/12/25 09:12:07;;;;;;;0.90;0.60;;;16.70;91.60;;;16.61;43.83;100236.28;4975612;28;97011;-44
2021/12/25 09:14:32;;;;;;;0.67;0.67;;;16.70;91.70;;;16.61;43.45;100229.13;4975004;28;97367;-45
2021/12/25 09:16:58;;;;;;;0.60;0.60;;;16.80;91.60;;;16.62;43.60;100230.00;4971839;28;115680;-46
2021/12/25 09:19:24;;;;;;;0.60;0.60;;;16.80;91.50;;;16.65;43.71;100235.13;4971218;28;97175;-47
2021/12/25 09:21:50;;;;;;;1.33;0.80;;;16.90;91.40;;;16.63;43.34;100237.88;4976613;28;97173;-45
2021/12/25 09:24:16;;;;;;;0.60;0.60;;;16.90;91.40;;;16.64;43.44;100238.75;4971009;28;100756;-45
2021/12/25 09:26:43;;;;;;;0.70;0.60;;;16.80;91.40;;;16.66;43.69;100242.16;4988915;28;97615;-48
2021/12/25 09:29:09;;;;;;;2.00;1.90;;;16.90;91.30;;;16.64;43.02;100250.25;4976808;28;97041;-48
2021/12/25 09:31:35;;;;;;;0.50;0.50;;;16.80;89.10;;;16.62;43.53;100252.16;4969377;28;97470;-47
2021/12/25 09:34:01;;;;;;;0.70;0.70;;;16.70;91.40;;;16.60;43.71;100254.06;4953512;28;97817;-48
2021/12/25 09:36:29;;;;;;;3.40;3.10;;;16.70;91.30;;;15.61;45.35;100247.22;4953777;28;97851;-47
2021/12/25 09:38:55;;;;;;;1.03;0.97;;;15.20;92.60;;;15.75;45.43;100244.53;4952747;28;98782;-52
2021/12/25 09:41:21;;;;;;;1.80;0.83;;;15.40;93.80;;;15.85;45.17;100238.66;4966230;28;98126;-45
2021/12/25 09:43:49;;;;;;;0.83;0.70;;;15.70;93.20;;;15.96;44.82;100246.81;4957947;28;97864;-49
2021/12/25 09:46:20;;;;;;;2.00;0.80;;;15.90;92.60;;;16.06;44.41;100253.25;4947441;28;98531;-47
2021/12/25 09:48:47;;;;;;;1.23;0.90;;;16.10;92.30;;;16.11;44.12;100261.78;4949653;28;97169;-46
2021/12/25 09:51:13;;;;;;;0.80;0.80;;;16.20;91.20;;;16.12;44.46;100263.47;4956117;28;97385;-52
2021/12/25 09:53:40;;;;;;;0.60;0.60;;;16.20;91.70;;;16.15;44.25;100257.09;4957498;28;99081;-45
2021/12/25 09:56:06;;;;;;;0.90;0.80;;;16.20;92.20;;;16.15;44.35;100263.28;4950679;28;98389;-45
2021/12/25 09:58:32;;;;;;;0.57;0.57;;;16.20;91.80;;;16.23;44.14;100260.13;4955697;28;98243;-49
2021/12/25 10:00:59;;;;;;;3.60;3.30;;;16.20;92.00;;;16.15;43.68;100263.28;4953151;27;98517;-46
2021/12/25 10:03:43;;;;;;;0.70;0.70;;;16.10;89.30;;;16.09;44.36;100263.69;4961161;28;98650;-50
2021/12/25 10:06:09;;;;;;;0.67;0.60;;;15.90;92.60;;;16.09;44.45;100260.16;4954573;28;97454;-46
2021/12/25 10:08:39;;;;;;;1.57;1.07;;;15.90;92.60;;;16.16;44.29;100264.97;4952851;28;98836;-49
2021/12/25 10:11:05;;;;;;;1.00;0.80;;;16.10;92.00;;;16.09;44.23;100266.34;4955041;28;99570;-46
2021/12/25 10:13:36;;;;;;;1.10;1.07;;;16.00;90.90;;;16.07;44.57;100270.91;4948655;28;97513;-46
2021/12/25 10:16:26;;;;;;;1.33;0.50;;;15.90;91.90;;;16.10;44.87;100272.53;4966206;28;98166;-48
2021/12/25 10:19:18;;;;;;;0.60;0.50;;;15.90;92.80;;;16.15;44.51;100271.25;4951970;28;98045;-47
2021/12/25 10:21:44;;;;;;;0.53;0.53;;;16.10;92.40;;;16.20;44.45;100277.16;4966248;28;97959;-48
2021/12/25 10:24:25;;;;;;;0.87;0.87;;;16.20;92.30;;;16.20;44.16;100282.47;4953913;28;97307;-50
2021/12/25 10:26:53;;;;;;;0.60;0.50;;;16.20;90.80;;;16.10;44.65;100269.84;4949005;28;103276;-49
2021/12/25 10:29:21;;;;;;;0.67;0.67;;;16.00;91.70;;;16.06;44.82;100274.53;4945326;28;98273;-46
2021/12/25 10:31:48;;;;;;;0.40;0.40;;;15.90;92.70;;;16.02;45.03;100267.69;4954563;28;97289;-50
2021/12/25 10:34:24;;;;;;;1.33;1.23;;;15.90;92.70;;;15.96;45.00;100278.72;4951865;28;99246;-47
2021/12/25 10:36:50;;;;;;;2.63;1.97;;;15.70;91.80;;;15.87;45.02;100272.16;4952261;28;97605;-47
2021/12/25 10:39:25;;;;;;;0.70;0.70;;;15.60;92.50;;;15.80;45.15;100270.00;4941103;28;97125;-48
2021/12/25 10:42:10;;;;;;;0.83;0.40;;;15.50;91.80;;;15.84;45.42;100268.84;4945871;28;97572;-45
2021/12/25 10:44:39;;;;;;;0.70;0.60;;;15.50;93.40;;;15.95;45.19;100266.38;4944578;28;103976;-49
2021/12/25 10:47:08;;;;;;;0.60;0.60;;;15.80;92.90;;;16.02;44.96;100259.69;4954364;28;99988;-49
2021/12/25 10:49:45;;;;;;;1.80;1.70;;;16.00;92.10;;;16.07;44.71;100260.28;4942166;28;97021;-47
2021/12/25 10:52:32;;;;;;;0.83;0.60;;;16.00;92.10;;;16.04;44.64;100261.31;4952846;28;99935;-49
2021/12/25 10:55:26;;;;;;;1.07;0.60;;;16.00;92.40;;;16.05;44.70;100256.81;4951236;28;103991;-48
2021/12/25 10:57:59;;;;;;;0.63;0.63;;;16.00;92.30;;;16.12;44.95;100252.84;4962182;28;102951;-48
2021/12/25 11:00:32;;;;;;;0.83;0.60;;;16.10;92.60;;;16.18;44.59;100257.75;4950873;28;98480;-46
2021/12/25 11:03:08;;;;;;;0.57;0.57;;;16.20;92.50;;;16.27;44.49;100251.84;4955943;28;97745;-46
2021/12/25 11:05:45;;;;;;;1.00;0.80;;;16.30;92.20;;;16.34;44.13;100258.44;4958747;28;100063;-48
2021/12/25 11:08:12;;;;;;;1.00;0.70;;;16.50;92.00;;;16.40;44.14;100253.69;4953496;28;99751;-50
2021/12/25 11:10:55;;;;;;;0.87;0.80;;;16.50;91.80;;;16.45;43.95;100243.59;4951239;28;97105;-47
2021/12/25 11:13:36;;;;;;;0.70;0.70;;;16.60;91.70;;;16.50;43.88;100241.50;4949236;28;97582;-51
2021/12/25 11:16:20;;;;;;;0.77;0.50;;;16.70;91.50;;;16.54;43.49;100250.97;4966645;28;98269;-47
2021/12/25 11:19:11;;;;;;;0.70;0.70;;;16.70;91.40;;;16.49;43.51;100259.28;4958245;28;104286;-50
2021/12/25 11:21:59;;;;;;;0.60;0.60;;;16.60;91.50;;;16.40;43.69;100261.69;4963431;28;97512;-45
2021/12/25 11:24:42;;;;;;;0.77;0.77;;;16.40;90.20;;;16.27;44.06;100258.97;4964886;28;99841;-46
2021/12/25 11:27:08;;;;;;;0.77;0.57;;;16.20;91.20;;;16.24;44.19;100261.84;4953652;28;98565;-48
2021/12/25 11:29:37;;;;;;;0.50;0.50;;;16.10;91.90;;;16.24;44.20;100265.34;4952755;28;99225;-46
2021/12/25 11:32:06;;;;;;;0.73;0.63;;;16.20;92.20;;;16.17;44.07;100272.00;4950537;28;96953;-47
2021/12/25 11:34:32;;;;;;;0.97;0.70;;;16.10;90.80;;;16.13;44.47;100261.66;4946358;28;98212;-48
2021/12/25 11:37:00;;;;;;;0.90;0.73;;;16.00;92.50;;;16.20;44.45;100266.50;4956405;28;99638;-45